sensor_id;sensor_type;location;lat;lon;timestamp;temperature;humidity
33715;DHT22;20043;50.998;4.754;2023-10-09T00:02:10;17.60;99.90
33715;DHT22;20043;50.998;4.754;2023-10-09T00:04:37;17.50;99.90
33715;DHT22;20043;50.998;4.754;2023-10-09T00:07:04;17.40;99.90
33715;DHT22;20043;50.998;4.754;2023-10-09T00:09:36;17.40;99.90
33715;DHT22;20043;50.998;4.754;2023-10-09T00:12:17;17.50;99.90
33715;DHT22;20043;50.998;4.754;2023-10-09T00:14:48;17.50;99.90
33715;DHT22;20043;50.998;4.754;2023-10-09T00:17:16;17.50;99.90
33715;DHT22;20043;50.998;4.754;2023-10-09T00:19:44;17.40;99.90
33715;DHT22;20043;50.998;4.754;2023-10-09T00:22:09;17.40;99.90
33715;DHT22;20043;50.998;4.754;2023-10-09T00:25:04;17.40;99.90
33715;DHT22;20043;50.998;4.754;2023-10-09T00:27:41;17.40;99.90
33715;DHT22;20043;50.998;4.754;2023-10-09T00:30:15;17.40;99.90
33715;DHT22;20043;50.998;4.754;2023-10-09T00:32:47;17.40;99.90
33715;DHT22;20043;50.998;4.754;2023-10-09T00:35:29;17.50;99.90
33715;DHT22;20043;50.998;4.754;2023-10-09T00:38:09;17.40;99.90
33715;DHT22;20043;50.998;4.754;2023-10-09T00:40:50;17.40;99.90
33715;DHT22;20043;50.998;4.754;2023-10-09T00:43:29;17.40;99.90
33715;DHT22;20043;50.998;4.754;2023-10-09T00:45:57;17.30;99.90
33715;DHT22;20043;50.998;4.754;2023-10-09T00:48:37;17.30;99.90
33715;DHT22;20043;50.998;4.754;2023-10-09T00:51:05;17.40;99.90
33715;DHT22;20043;50.998;4.754;2023-10-09T00:53:43;17.30;99.90
33715;DHT22;20043;50.998;4.754;2023-10-09T00:56:09;17.30;99.90
33715;DHT22;20043;50.998;4.754;2023-10-09T00:58:51;17.30;99.90
33715;DHT22;20043;50.998;4.754;2023-10-09T01:01:34;17.40;99.90
33715;DHT22;20043;50.998;4.754;2023-10-09T01:04:05;17.60;99.90
33715;DHT22;20043;50.998;4.754;2023-10-09T01:06:33;17.60;99.90
33715;DHT22;20043;50.998;4.754;2023-10-09T01:09:08;17.60;99.90
33715;DHT22;20043;50.998;4.754;2023-10-09T01:11:38;17.70;99.90
33715;DHT22;20043;50.998;4.754;2023-10-09T01:14:33;17.60;99.90
33715;DHT22;20043;50.998;4.754;2023-10-09T01:17:03;17.60;99.90
33715;DHT22;20043;50.998;4.754;2023-10-09T01:19:34;17.60;99.90
33715;DHT22;20043;50.998;4.754;2023-10-09T01:22:00;17.40;99.90
33715;DHT22;20043;50.998;4.754;2023-10-09T01:24:30;17.50;99.90
33715;DHT22;20043;50.998;4.754;2023-10-09T01:27:00;17.60;99.90
33715;DHT22;20043;50.998;4.754;2023-10-09T01:29:30;17.60;99.90
33715;DHT22;20043;50.998;4.754;2023-10-09T01:31:56;17.70;99.90
33715;DHT22;20043;50.998;4.754;2023-10-09T01:34:27;17.70;99.90
33715;DHT22;20043;50.998;4.754;2023-10-09T01:37:06;17.70;99.90
33715;DHT22;20043;50.998;4.754;2023-10-09T01:39:40;17.70;99.90
33715;DHT22;20043;50.998;4.754;2023-10-09T01:42:07;17.70;99.90
33715;DHT22;20043;50.998;4.754;2023-10-09T01:44:33;17.60;99.90
33715;DHT22;20043;50.998;4.754;2023-10-09T01:47:09;17.60;99.90
33715;DHT22;20043;50.998;4.754;2023-10-09T01:49:41;17.60;99.90
33715;DHT22;20043;50.998;4.754;2023-10-09T01:52:09;17.60;99.90
33715;DHT22;20043;50.998;4.754;2023-10-09T01:54:42;17.50;99.90
33715;DHT22;20043;50.998;4.754;2023-10-09T01:57:14;17.40;99.90
33715;DHT22;20043;50.998;4.754;2023-10-09T01:59:42;17.40;99.90
33715;DHT22;20043;50.998;4.754;2023-10-09T02:02:13;17.40;99.90
33715;DHT22;20043;50.998;4.754;2023-10-09T02:04:56;17.30;99.90
33715;DHT22;20043;50.998;4.754;2023-10-09T02:07:39;17.30;99.90
33715;DHT22;20043;50.998;4.754;2023-10-09T02:10:20;17.30;99.90
33715;DHT22;20043;50.998;4.754;2023-10-09T02:12:59;17.30;99.90
33715;DHT22;20043;50.998;4.754;2023-10-09T02:15:29;17.30;99.90
33715;DHT22;20043;50.998;4.754;2023-10-09T02:18:11;17.30;99.90
33715;DHT22;20043;50.998;4.754;2023-10-09T02:20:44;17.30;99.90
33715;DHT22;20043;50.998;4.754;2023-10-09T02:23:14;17.40;99.90
33715;DHT22;20043;50.998;4.754;2023-10-09T02:25:42;17.40;99.90
33715;DHT22;20043;50.998;4.754;2023-10-09T02:28:10;17.40;99.90
33715;DHT22;20043;50.998;4.754;2023-10-09T02:30:45;17.40;99.90
33715;DHT22;20043;50.998;4.754;2023-10-09T02:33:15;17.40;99.90
33715;DHT22;20043;50.998;4.754;2023-10-09T02:35:46;17.50;99.90
33715;DHT22;20043;50.998;4.754;2023-10-09T02:38:17;17.60;99.90
33715;DHT22;20043;50.998;4.754;2023-10-09T02:40:43;17.70;99.90
33715;DHT22;20043;50.998;4.754;2023-10-09T02:43:28;17.60;99.90
33715;DHT22;20043;50.998;4.754;2023-10-09T02:46:02;17.40;99.90
33715;DHT22;20043;50.998;4.754;2023-10-09T02:48:39;17.50;99.90
33715;DHT22;20043;50.998;4.754;2023-10-09T02:51:10;17.50;99.90
33715;DHT22;20043;50.998;4.754;2023-10-09T02:54:01;17.40;99.90
33715;DHT22;20043;50.998;4.754;2023-10-09T02:56:34;17.50;99.90
33715;DHT22;20043;50.998;4.754;2023-10-09T02:59:23;17.60;99.90
33715;DHT22;20043;50.998;4.754;2023-10-09T03:01:50;17.60;99.90
33715;DHT22;20043;50.998;4.754;2023-10-09T03:04:18;17.60;99.90
33715;DHT22;20043;50.998;4.754;2023-10-09T03:06:44;17.70;99.90
33715;DHT22;20043;50.998;4.754;2023-10-09T03:09:20;17.70;99.90
33715;DHT22;20043;50.998;4.754;2023-10-09T03:11:59;17.60;99.90
33715;DHT22;20043;50.998;4.754;2023-10-09T03:14:29;17.60;99.90
33715;DHT22;20043;50.998;4.754;2023-10-09T03:16:56;17.50;99.90
33715;DHT22;20043;50.998;4.754;2023-10-09T03:19:23;17.50;99.90
33715;DHT22;20043;50.998;4.754;2023-10-09T03:21:50;17.60;99.90
33715;DHT22;20043;50.998;4.754;2023-10-09T03:24:16;17.60;99.90
33715;DHT22;20043;50.998;4.754;2023-10-09T03:26:41;17.50;99.90
33715;DHT22;20043;50.998;4.754;2023-10-09T03:29:11;17.50;99.90
33715;DHT22;20043;50.998;4.754;2023-10-09T03:31:37;17.40;99.90
33715;DHT22;20043;50.998;4.754;2023-10-09T03:34:03;17.40;99.90
33715;DHT22;20043;50.998;4.754;2023-10-09T03:36:29;17.50;99.90
33715;DHT22;20043;50.998;4.754;2023-10-09T03:38:56;17.50;99.90
33715;DHT22;20043;50.998;4.754;2023-10-09T03:41:24;17.60;99.90
33715;DHT22;20043;50.998;4.754;2023-10-09T03:43:52;17.50;99.90
33715;DHT22;20043;50.998;4.754;2023-10-09T03:46:20;17.50;99.90
33715;DHT22;20043;50.998;4.754;2023-10-09T03:48:52;17.60;99.90
33715;DHT22;20043;50.998;4.754;2023-10-09T03:51:18;17.60;99.90
33715;DHT22;20043;50.998;4.754;2023-10-09T03:53:48;17.70;99.90
33715;DHT22;20043;50.998;4.754;2023-10-09T03:56:14;17.70;99.90
33715;DHT22;20043;50.998;4.754;2023-10-09T03:58:44;17.70;99.90
33715;DHT22;20043;50.998;4.754;2023-10-09T04:01:15;17.60;99.90
33715;DHT22;20043;50.998;4.754;2023-10-09T04:04:05;17.50;99.90
33715;DHT22;20043;50.998;4.754;2023-10-09T04:06:33;17.50;99.90
33715;DHT22;20043;50.998;4.754;2023-10-09T04:09:02;17.60;99.90
33715;DHT22;20043;50.998;4.754;2023-10-09T04:11:50;17.70;99.90
33715;DHT22;20043;50.998;4.754;2023-10-09T04:14:38;17.80;99.90
33715;DHT22;20043;50.998;4.754;2023-10-09T04:17:20;17.70;99.90
33715;DHT22;20043;50.998;4.754;2023-10-09T04:19:59;17.60;99.90
33715;DHT22;20043;50.998;4.754;2023-10-09T04:22:43;17.60;99.90
33715;DHT22;20043;50.998;4.754;2023-10-09T04:25:28;17.70;99.90
33715;DHT22;20043;50.998;4.754;2023-10-09T04:28:08;17.70;99.90
33715;DHT22;20043;50.998;4.754;2023-10-09T04:30:47;17.70;99.90
33715;DHT22;20043;50.998;4.754;2023-10-09T04:33:19;17.50;99.90
33715;DHT22;20043;50.998;4.754;2023-10-09T04:36:03;17.50;99.90
33715;DHT22;20043;50.998;4.754;2023-10-09T04:38:44;17.40;99.90
33715;DHT22;20043;50.998;4.754;2023-10-09T04:41:30;17.40;99.90
33715;DHT22;20043;50.998;4.754;2023-10-09T04:44:20;17.50;99.90
33715;DHT22;20043;50.998;4.754;2023-10-09T04:46:49;17.50;99.90
33715;DHT22;20043;50.998;4.754;2023-10-09T04:49:44;17.50;99.90
33715;DHT22;20043;50.998;4.754;2023-10-09T04:52:21;17.50;99.90
33715;DHT22;20043;50.998;4.754;2023-10-09T04:55:04;17.50;99.90
33715;DHT22;20043;50.998;4.754;2023-10-09T05:00:09;17.40;99.90
33715;DHT22;20043;50.998;4.754;2023-10-09T05:03:00;17.40;99.90
33715;DHT22;20043;50.998;4.754;2023-10-09T05:05:50;17.40;99.90
33715;DHT22;20043;50.998;4.754;2023-10-09T05:08:24;17.30;99.90
33715;DHT22;20043;50.998;4.754;2023-10-09T05:11:00;17.40;99.90
33715;DHT22;20043;50.998;4.754;2023-10-09T05:13:27;17.40;99.90
33715;DHT22;20043;50.998;4.754;2023-10-09T05:16:18;17.30;99.90
33715;DHT22;20043;50.998;4.754;2023-10-09T05:18:48;17.30;99.90
33715;DHT22;20043;50.998;4.754;2023-10-09T05:21:28;17.40;99.90
33715;DHT22;20043;50.998;4.754;2023-10-09T05:24:01;17.50;99.90
33715;DHT22;20043;50.998;4.754;2023-10-09T05:26:45;17.50;99.90
33715;DHT22;20043;50.998;4.754;2023-10-09T05:29:21;17.40;99.90
33715;DHT22;20043;50.998;4.754;2023-10-09T05:32:03;17.50;99.90
33715;DHT22;20043;50.998;4.754;2023-10-09T05:34:38;17.50;99.90
33715;DHT22;20043;50.998;4.754;2023-10-09T05:37:33;17.20;99.90
33715;DHT22;20043;50.998;4.754;2023-10-09T05:40:01;17.20;99.90
33715;DHT22;20043;50.998;4.754;2023-10-09T05:42:34;17.20;99.90
33715;DHT22;20043;50.998;4.754;2023-10-09T05:45:04;17.30;99.90
33715;DHT22;20043;50.998;4.754;2023-10-09T05:47:52;17.40;99.90
33715;DHT22;20043;50.998;4.754;2023-10-09T05:50:52;17.30;99.90
33715;DHT22;20043;50.998;4.754;2023-10-09T05:53:38;17.30;99.90
33715;DHT22;20043;50.998;4.754;2023-10-09T05:56:24;17.20;99.90
33715;DHT22;20043;50.998;4.754;2023-10-09T05:59:08;17.30;99.90
33715;DHT22;20043;50.998;4.754;2023-10-09T06:01:52;17.40;99.90
33715;DHT22;20043;50.998;4.754;2023-10-09T06:04:40;17.40;99.90
33715;DHT22;20043;50.998;4.754;2023-10-09T06:07:20;17.40;99.90
33715;DHT22;20043;50.998;4.754;2023-10-09T06:09:50;17.20;99.90
33715;DHT22;20043;50.998;4.754;2023-10-09T06:12:18;17.10;99.90
33715;DHT22;20043;50.998;4.754;2023-10-09T06:14:59;17.20;99.90
33715;DHT22;20043;50.998;4.754;2023-10-09T06:17:45;17.20;99.90
33715;DHT22;20043;50.998;4.754;2023-10-09T06:20:16;17.30;99.90
33715;DHT22;20043;50.998;4.754;2023-10-09T06:23:01;17.40;99.90
33715;DHT22;20043;50.998;4.754;2023-10-09T06:25:42;17.60;99.90
33715;DHT22;20043;50.998;4.754;2023-10-09T06:28:17;17.70;99.90
33715;DHT22;20043;50.998;4.754;2023-10-09T06:30:44;17.70;99.90
33715;DHT22;20043;50.998;4.754;2023-10-09T06:33:13;17.70;99.90
33715;DHT22;20043;50.998;4.754;2023-10-09T06:35:46;17.60;99.90
33715;DHT22;20043;50.998;4.754;2023-10-09T06:38:19;17.60;99.90
33715;DHT22;20043;50.998;4.754;2023-10-09T06:40:51;17.50;99.90
33715;DHT22;20043;50.998;4.754;2023-10-09T06:43:18;17.50;99.90
33715;DHT22;20043;50.998;4.754;2023-10-09T06:45:52;17.50;99.90
33715;DHT22;20043;50.998;4.754;2023-10-09T06:48:37;17.50;99.90
33715;DHT22;20043;50.998;4.754;2023-10-09T06:51:04;17.60;99.90
33715;DHT22;20043;50.998;4.754;2023-10-09T06:53:39;17.60;99.90
33715;DHT22;20043;50.998;4.754;2023-10-09T06:59:11;17.70;99.90
33715;DHT22;20043;50.998;4.754;2023-10-09T07:01:47;17.90;99.90
33715;DHT22;20043;50.998;4.754;2023-10-09T07:04:33;18.10;99.90
33715;DHT22;20043;50.998;4.754;2023-10-09T07:06:58;18.20;99.90
33715;DHT22;20043;50.998;4.754;2023-10-09T07:09:24;18.10;99.90
33715;DHT22;20043;50.998;4.754;2023-10-09T07:12:10;18.10;99.90
33715;DHT22;20043;50.998;4.754;2023-10-09T07:14:40;17.90;99.90
33715;DHT22;20043;50.998;4.754;2023-10-09T07:17:08;18.00;99.90
33715;DHT22;20043;50.998;4.754;2023-10-09T07:19:54;18.20;99.90
33715;DHT22;20043;50.998;4.754;2023-10-09T07:22:20;18.20;99.90
33715;DHT22;20043;50.998;4.754;2023-10-09T07:24:51;18.30;99.90
33715;DHT22;20043;50.998;4.754;2023-10-09T07:27:28;18.30;99.90
33715;DHT22;20043;50.998;4.754;2023-10-09T07:30:10;18.40;99.90
33715;DHT22;20043;50.998;4.754;2023-10-09T07:32:59;18.30;99.90
33715;DHT22;20043;50.998;4.754;2023-10-09T07:35:34;18.30;99.90
33715;DHT22;20043;50.998;4.754;2023-10-09T07:38:14;18.30;99.90
33715;DHT22;20043;50.998;4.754;2023-10-09T07:40:41;18.40;99.90
33715;DHT22;20043;50.998;4.754;2023-10-09T07:43:28;18.50;99.90
33715;DHT22;20043;50.998;4.754;2023-10-09T07:46:08;18.50;99.90
33715;DHT22;20043;50.998;4.754;2023-10-09T07:48:58;18.50;99.90
33715;DHT22;20043;50.998;4.754;2023-10-09T07:51:26;18.60;99.90
33715;DHT22;20043;50.998;4.754;2023-10-09T07:53:59;18.60;99.90
33715;DHT22;20043;50.998;4.754;2023-10-09T07:56:38;18.60;99.90
33715;DHT22;20043;50.998;4.754;2023-10-09T07:59:07;18.70;99.90
33715;DHT22;20043;50.998;4.754;2023-10-09T08:01:42;18.60;99.90
33715;DHT22;20043;50.998;4.754;2023-10-09T08:04:25;18.80;99.90
33715;DHT22;20043;50.998;4.754;2023-10-09T08:07:09;18.80;99.90
33715;DHT22;20043;50.998;4.754;2023-10-09T08:09:47;18.80;99.90
33715;DHT22;20043;50.998;4.754;2023-10-09T08:12:14;18.80;99.90
33715;DHT22;20043;50.998;4.754;2023-10-09T08:14:58;18.80;99.90
33715;DHT22;20043;50.998;4.754;2023-10-09T08:17:38;18.80;99.90
33715;DHT22;20043;50.998;4.754;2023-10-09T08:20:04;18.80;99.90
33715;DHT22;20043;50.998;4.754;2023-10-09T08:22:42;18.80;99.90
33715;DHT22;20043;50.998;4.754;2023-10-09T08:25:18;18.70;99.90
33715;DHT22;20043;50.998;4.754;2023-10-09T08:28:02;18.70;99.90
33715;DHT22;20043;50.998;4.754;2023-10-09T08:30:40;18.70;99.90
33715;DHT22;20043;50.998;4.754;2023-10-09T08:33:15;18.70;99.90
33715;DHT22;20043;50.998;4.754;2023-10-09T08:35:54;18.70;99.90
33715;DHT22;20043;50.998;4.754;2023-10-09T08:38:33;18.80;99.90
33715;DHT22;20043;50.998;4.754;2023-10-09T08:41:12;18.90;99.90
33715;DHT22;20043;50.998;4.754;2023-10-09T08:43:51;19.10;99.90
33715;DHT22;20043;50.998;4.754;2023-10-09T08:46:20;19.10;99.90
33715;DHT22;20043;50.998;4.754;2023-10-09T08:48:46;19.20;99.90
33715;DHT22;20043;50.998;4.754;2023-10-09T08:51:12;19.30;99.90
33715;DHT22;20043;50.998;4.754;2023-10-09T08:53:39;19.60;99.90
33715;DHT22;20043;50.998;4.754;2023-10-09T08:56:17;19.60;99.90
33715;DHT22;20043;50.998;4.754;2023-10-09T08:58:52;19.70;99.90
33715;DHT22;20043;50.998;4.754;2023-10-09T09:01:18;19.70;99.90
33715;DHT22;20043;50.998;4.754;2023-10-09T09:03:47;19.70;99.90
33715;DHT22;20043;50.998;4.754;2023-10-09T09:06:13;19.80;99.90
33715;DHT22;20043;50.998;4.754;2023-10-09T09:08:40;19.80;99.90
33715;DHT22;20043;50.998;4.754;2023-10-09T09:11:12;19.90;99.90
33715;DHT22;20043;50.998;4.754;2023-10-09T09:14:06;19.90;99.90
33715;DHT22;20043;50.998;4.754;2023-10-09T09:16:40;19.90;99.90
33715;DHT22;20043;50.998;4.754;2023-10-09T09:19:10;19.90;99.90
33715;DHT22;20043;50.998;4.754;2023-10-09T09:21:41;19.80;99.90
33715;DHT22;20043;50.998;4.754;2023-10-09T09:24:12;19.90;99.90
33715;DHT22;20043;50.998;4.754;2023-10-09T09:26:47;20.00;99.90
33715;DHT22;20043;50.998;4.754;2023-10-09T09:32:03;20.20;99.90
33715;DHT22;20043;50.998;4.754;2023-10-09T09:34:45;20.30;99.90
33715;DHT22;20043;50.998;4.754;2023-10-09T09:37:22;20.50;99.90
33715;DHT22;20043;50.998;4.754;2023-10-09T09:39:55;20.50;99.90
33715;DHT22;20043;50.998;4.754;2023-10-09T09:42:22;20.70;99.90
33715;DHT22;20043;50.998;4.754;2023-10-09T09:44:52;20.70;99.90
33715;DHT22;20043;50.998;4.754;2023-10-09T09:47:19;20.80;99.90
33715;DHT22;20043;50.998;4.754;2023-10-09T09:49:54;21.00;99.90
33715;DHT22;20043;50.998;4.754;2023-10-09T09:52:33;21.10;99.90
33715;DHT22;20043;50.998;4.754;2023-10-09T09:55:07;21.20;99.90
33715;DHT22;20043;50.998;4.754;2023-10-09T09:57:40;21.30;99.90
33715;DHT22;20043;50.998;4.754;2023-10-09T10:00:09;21.10;99.90
33715;DHT22;20043;50.998;4.754;2023-10-09T10:02:52;21.10;99.90
33715;DHT22;20043;50.998;4.754;2023-10-09T10:05:21;21.10;99.90
33715;DHT22;20043;50.998;4.754;2023-10-09T10:07:48;21.10;99.90
33715;DHT22;20043;50.998;4.754;2023-10-09T10:10:38;20.90;99.90
33715;DHT22;20043;50.998;4.754;2023-10-09T10:13:13;21.00;99.90
33715;DHT22;20043;50.998;4.754;2023-10-09T10:15:58;21.00;99.90
33715;DHT22;20043;50.998;4.754;2023-10-09T10:18:33;21.10;99.90
33715;DHT22;20043;50.998;4.754;2023-10-09T10:21:18;21.10;99.90
33715;DHT22;20043;50.998;4.754;2023-10-09T10:23:54;21.10;99.90
33715;DHT22;20043;50.998;4.754;2023-10-09T10:26:31;21.10;99.90
33715;DHT22;20043;50.998;4.754;2023-10-09T10:29:18;21.10;99.90
33715;DHT22;20043;50.998;4.754;2023-10-09T10:32:01;21.00;99.90
33715;DHT22;20043;50.998;4.754;2023-10-09T10:35:01;21.00;99.90
33715;DHT22;20043;50.998;4.754;2023-10-09T10:37:38;21.00;99.90
33715;DHT22;20043;50.998;4.754;2023-10-09T10:40:25;21.20;99.90
33715;DHT22;20043;50.998;4.754;2023-10-09T10:43:04;21.30;99.90
33715;DHT22;20043;50.998;4.754;2023-10-09T10:45:45;21.40;99.90
33715;DHT22;20043;50.998;4.754;2023-10-09T10:48:11;21.50;99.90
33715;DHT22;20043;50.998;4.754;2023-10-09T10:50:56;21.60;99.90
33715;DHT22;20043;50.998;4.754;2023-10-09T10:53:23;21.50;99.90
33715;DHT22;20043;50.998;4.754;2023-10-09T10:56:02;21.40;99.90
33715;DHT22;20043;50.998;4.754;2023-10-09T10:58:51;21.30;99.90
33715;DHT22;20043;50.998;4.754;2023-10-09T11:01:40;21.30;99.90
33715;DHT22;20043;50.998;4.754;2023-10-09T11:04:24;21.30;99.90
33715;DHT22;20043;50.998;4.754;2023-10-09T11:07:04;21.50;99.90
33715;DHT22;20043;50.998;4.754;2023-10-09T11:09:49;21.50;99.90
33715;DHT22;20043;50.998;4.754;2023-10-09T11:12:45;21.50;99.90
33715;DHT22;20043;50.998;4.754;2023-10-09T11:15:33;21.40;99.90
33715;DHT22;20043;50.998;4.754;2023-10-09T11:18:42;21.50;99.90
33715;DHT22;20043;50.998;4.754;2023-10-09T11:21:14;21.60;99.90
33715;DHT22;20043;50.998;4.754;2023-10-09T11:23:41;21.80;99.90
33715;DHT22;20043;50.998;4.754;2023-10-09T11:26:27;22.00;99.90
33715;DHT22;20043;50.998;4.754;2023-10-09T11:29:26;22.30;99.90
33715;DHT22;20043;50.998;4.754;2023-10-09T11:32:05;22.30;99.90
33715;DHT22;20043;50.998;4.754;2023-10-09T11:34:31;22.30;99.90
33715;DHT22;20043;50.998;4.754;2023-10-09T11:36:58;22.30;99.90
33715;DHT22;20043;50.998;4.754;2023-10-09T11:39:30;22.40;99.90
33715;DHT22;20043;50.998;4.754;2023-10-09T11:42:07;22.40;99.90
33715;DHT22;20043;50.998;4.754;2023-10-09T11:44:50;22.40;99.90
33715;DHT22;20043;50.998;4.754;2023-10-09T11:47:20;22.30;99.90
33715;DHT22;20043;50.998;4.754;2023-10-09T11:52:26;22.40;99.90
33715;DHT22;20043;50.998;4.754;2023-10-09T11:55:04;22.40;99.90
33715;DHT22;20043;50.998;4.754;2023-10-09T11:57:32;22.40;99.90
33715;DHT22;20043;50.998;4.754;2023-10-09T12:00:04;22.30;99.90
33715;DHT22;20043;50.998;4.754;2023-10-09T12:02:52;22.30;99.90
33715;DHT22;20043;50.998;4.754;2023-10-09T12:05:18;22.50;99.90
33715;DHT22;20043;50.998;4.754;2023-10-09T12:07:47;22.40;99.90
33715;DHT22;20043;50.998;4.754;2023-10-09T12:10:19;22.40;99.90
33715;DHT22;20043;50.998;4.754;2023-10-09T12:12:51;22.30;99.90
33715;DHT22;20043;50.998;4.754;2023-10-09T12:15:16;22.40;99.90
33715;DHT22;20043;50.998;4.754;2023-10-09T12:17:46;22.70;99.90
33715;DHT22;20043;50.998;4.754;2023-10-09T12:20:16;22.50;99.90
33715;DHT22;20043;50.998;4.754;2023-10-09T12:22:59;22.50;99.90
33715;DHT22;20043;50.998;4.754;2023-10-09T12:25:26;22.50;99.90
33715;DHT22;20043;50.998;4.754;2023-10-09T12:27:52;22.50;99.90
33715;DHT22;20043;50.998;4.754;2023-10-09T12:30:20;22.50;99.90
33715;DHT22;20043;50.998;4.754;2023-10-09T12:32:53;22.70;99.90
33715;DHT22;20043;50.998;4.754;2023-10-09T12:35:19;22.70;99.90
33715;DHT22;20043;50.998;4.754;2023-10-09T12:37:44;22.80;99.90
33715;DHT22;20043;50.998;4.754;2023-10-09T12:40:11;22.90;99.90
33715;DHT22;20043;50.998;4.754;2023-10-09T12:42:37;22.90;99.90
33715;DHT22;20043;50.998;4.754;2023-10-09T12:45:03;22.90;99.90
33715;DHT22;20043;50.998;4.754;2023-10-09T12:47:35;22.90;99.90
33715;DHT22;20043;50.998;4.754;2023-10-09T12:50:05;22.90;99.90
33715;DHT22;20043;50.998;4.754;2023-10-09T12:52:35;22.90;99.90
33715;DHT22;20043;50.998;4.754;2023-10-09T12:55:03;22.90;99.90
33715;DHT22;20043;50.998;4.754;2023-10-09T12:57:32;22.80;99.90
33715;DHT22;20043;50.998;4.754;2023-10-09T12:59:58;22.90;99.90
33715;DHT22;20043;50.998;4.754;2023-10-09T13:02:23;22.80;99.90
33715;DHT22;20043;50.998;4.754;2023-10-09T13:04:58;22.80;99.90
33715;DHT22;20043;50.998;4.754;2023-10-09T13:07:25;22.60;99.90
33715;DHT22;20043;50.998;4.754;2023-10-09T13:09:51;22.50;99.90
33715;DHT22;20043;50.998;4.754;2023-10-09T13:12:35;22.50;99.90
33715;DHT22;20043;50.998;4.754;2023-10-09T13:15:08;22.50;99.90
33715;DHT22;20043;50.998;4.754;2023-10-09T13:17:38;22.30;99.90
33715;DHT22;20043;50.998;4.754;2023-10-09T13:20:05;22.40;99.90
33715;DHT22;20043;50.998;4.754;2023-10-09T13:22:41;22.40;99.90
33715;DHT22;20043;50.998;4.754;2023-10-09T13:25:10;22.30;99.90
33715;DHT22;20043;50.998;4.754;2023-10-09T13:27:42;22.40;99.90
33715;DHT22;20043;50.998;4.754;2023-10-09T13:30:09;22.50;99.90
33715;DHT22;20043;50.998;4.754;2023-10-09T13:32:50;22.50;99.90
33715;DHT22;20043;50.998;4.754;2023-10-09T13:35:19;22.70;99.90
33715;DHT22;20043;50.998;4.754;2023-10-09T13:37:45;22.80;99.90
33715;DHT22;20043;50.998;4.754;2023-10-09T13:40:21;22.70;99.90
33715;DHT22;20043;50.998;4.754;2023-10-09T13:42:53;22.70;99.90
33715;DHT22;20043;50.998;4.754;2023-10-09T13:45:25;22.70;99.90
33715;DHT22;20043;50.998;4.754;2023-10-09T13:47:53;22.90;99.90
33715;DHT22;20043;50.998;4.754;2023-10-09T13:50:20;22.80;99.90
33715;DHT22;20043;50.998;4.754;2023-10-09T13:52:48;22.80;99.90
33715;DHT22;20043;50.998;4.754;2023-10-09T13:55:14;22.70;99.90
33715;DHT22;20043;50.998;4.754;2023-10-09T13:57:43;22.80;99.90
33715;DHT22;20043;50.998;4.754;2023-10-09T14:00:13;22.80;99.90
33715;DHT22;20043;50.998;4.754;2023-10-09T14:02:43;22.70;99.90
33715;DHT22;20043;50.998;4.754;2023-10-09T14:05:10;22.70;99.90
33715;DHT22;20043;50.998;4.754;2023-10-09T14:07:35;22.70;99.90
33715;DHT22;20043;50.998;4.754;2023-10-09T14:10:02;22.80;99.90
33715;DHT22;20043;50.998;4.754;2023-10-09T14:12:43;22.90;99.90
33715;DHT22;20043;50.998;4.754;2023-10-09T14:15:09;22.90;99.90
33715;DHT22;20043;50.998;4.754;2023-10-09T14:17:42;22.90;99.90
33715;DHT22;20043;50.998;4.754;2023-10-09T14:20:08;22.80;99.90
33715;DHT22;20043;50.998;4.754;2023-10-09T14:22:53;22.70;99.90
33715;DHT22;20043;50.998;4.754;2023-10-09T14:25:19;22.60;99.90
33715;DHT22;20043;50.998;4.754;2023-10-09T14:27:46;22.70;99.90
33715;DHT22;20043;50.998;4.754;2023-10-09T14:30:13;22.70;99.90
33715;DHT22;20043;50.998;4.754;2023-10-09T14:32:48;22.60;99.90
33715;DHT22;20043;50.998;4.754;2023-10-09T14:35:17;22.70;99.90
33715;DHT22;20043;50.998;4.754;2023-10-09T14:37:47;22.70;99.90
33715;DHT22;20043;50.998;4.754;2023-10-09T14:40:12;22.50;99.90
33715;DHT22;20043;50.998;4.754;2023-10-09T14:42:39;22.40;99.90
33715;DHT22;20043;50.998;4.754;2023-10-09T14:45:10;22.50;99.90
33715;DHT22;20043;50.998;4.754;2023-10-09T14:47:41;22.50;99.90
33715;DHT22;20043;50.998;4.754;2023-10-09T14:50:07;22.60;99.90
33715;DHT22;20043;50.998;4.754;2023-10-09T14:52:34;22.50;99.90
33715;DHT22;20043;50.998;4.754;2023-10-09T14:55:04;22.50;99.90
33715;DHT22;20043;50.998;4.754;2023-10-09T14:57:30;22.40;99.90
33715;DHT22;20043;50.998;4.754;2023-10-09T14:59:59;22.50;99.90
33715;DHT22;20043;50.998;4.754;2023-10-09T15:02:31;22.60;99.90
33715;DHT22;20043;50.998;4.754;2023-10-09T15:04:57;22.50;99.90
33715;DHT22;20043;50.998;4.754;2023-10-09T15:07:23;22.50;99.90
33715;DHT22;20043;50.998;4.754;2023-10-09T15:09:49;22.40;99.90
33715;DHT22;20043;50.998;4.754;2023-10-09T15:12:16;22.40;99.90
33715;DHT22;20043;50.998;4.754;2023-10-09T15:14:42;22.50;99.90
33715;DHT22;20043;50.998;4.754;2023-10-09T15:17:08;22.30;99.90
33715;DHT22;20043;50.998;4.754;2023-10-09T15:19:34;22.40;99.90
33715;DHT22;20043;50.998;4.754;2023-10-09T15:22:00;22.50;99.90
33715;DHT22;20043;50.998;4.754;2023-10-09T15:24:26;22.60;99.90
33715;DHT22;20043;50.998;4.754;2023-10-09T15:26:55;22.80;99.90
33715;DHT22;20043;50.998;4.754;2023-10-09T15:29:27;22.70;99.90
33715;DHT22;20043;50.998;4.754;2023-10-09T15:32:01;22.70;99.90
33715;DHT22;20043;50.998;4.754;2023-10-09T15:34:31;22.60;99.90
33715;DHT22;20043;50.998;4.754;2023-10-09T15:36:57;22.50;99.90
33715;DHT22;20043;50.998;4.754;2023-10-09T15:39:22;22.40;99.90
33715;DHT22;20043;50.998;4.754;2023-10-09T15:41:50;22.20;99.90
33715;DHT22;20043;50.998;4.754;2023-10-09T15:44:16;22.10;99.90
33715;DHT22;20043;50.998;4.754;2023-10-09T15:46:42;22.00;99.90
33715;DHT22;20043;50.998;4.754;2023-10-09T15:49:11;22.00;99.90
33715;DHT22;20043;50.998;4.754;2023-10-09T15:51:39;22.10;99.90
33715;DHT22;20043;50.998;4.754;2023-10-09T15:54:05;22.10;99.90
33715;DHT22;20043;50.998;4.754;2023-10-09T15:56:30;22.20;99.90
33715;DHT22;20043;50.998;4.754;2023-10-09T15:58:56;22.30;99.90
33715;DHT22;20043;50.998;4.754;2023-10-09T16:01:22;22.30;99.90
33715;DHT22;20043;50.998;4.754;2023-10-09T16:03:48;22.20;99.90
33715;DHT22;20043;50.998;4.754;2023-10-09T16:06:15;22.20;99.90
33715;DHT22;20043;50.998;4.754;2023-10-09T16:08:43;22.00;99.90
33715;DHT22;20043;50.998;4.754;2023-10-09T16:11:11;22.00;99.90
33715;DHT22;20043;50.998;4.754;2023-10-09T16:13:38;22.00;99.90
33715;DHT22;20043;50.998;4.754;2023-10-09T16:16:05;22.00;99.90
33715;DHT22;20043;50.998;4.754;2023-10-09T16:18:34;22.10;99.90
33715;DHT22;20043;50.998;4.754;2023-10-09T16:21:00;22.00;99.90
33715;DHT22;20043;50.998;4.754;2023-10-09T16:23:31;22.00;99.90